Besuchen Sie unsere anderen Wetter Stationen:

Template documentation
and downloads

And another site



Select another period ( hide this area )

Einheiten Zeitraum Custom range Directly to
metrisch Englisch Beide
Tägliche Wöchentliche Monatliche Jährlich
use both date-selectors for a custom range
previous Tag
With this date

WeatherUnderground graphs for this period ( click here ) Loading the graph can take up to a minute!


Tägliche Zusammenfassung für Donnerstag 04 Juni 2020
Zeit Temp. ( °C ) Dew pt. ( °C ) Wind ( km/h ) von Windböen ( km/h ) Luftdruck ( hPa ) Humid.( % ) Rainrate ( cm ) Solar ( W/m2 )
Hoch16,3 14,6 22,0 SSW ( 1340/2219 ) 15,0 999,6 93 2,79 418
Durchchnittswerte14,7 12,5 8,9 SSW #142/248 5,9 995,6 87 1,70 144 #178/248
Wenig13,2 10,7 2,0   0,0 993,8 76 -  
Tägliche Tabular details for Donnerstag 04 Juni 2020
Zeit Temp. ( °C ) Dew pt. ( °C ) Wind ( km/h ) von Windböen ( km/h ) Luftdruck ( hPa ) Humid.( % ) Rainrate ( cm ) Solar ( W/m2 )
00:04 13,4 11,5 6,0 Westen 3,0 999,6 88 - -
00:09 14,1 11,6 7,0 WSW 5,0 999,5 88 - -
00:14 14,6 11,7 7,0 SW 5,0 999,5 85 - -
00:19 14,6 11,7 6,0 SW 4,0 999,4 83 - -
00:24 14,4 11,6 6,0 SW 5,0 999,4 83 - -
00:29 14,3 11,6 6,0 SW 5,0 999,4 84 - -
00:34 14,2 11,5 6,0 SW 4,0 999,3 84 - -
00:39 14,2 11,5 4,0 SW 3,0 999,2 84 - -
00:44 14,2 11,7 4,0 SW 3,0 999,1 85 - -
00:49 14,6 11,5 6,0 SW 4,0 999,1 84 - -
00:54 14,6 11,7 9,0 SSW 6,0 999,3 83 - -
00:59 14,6 11,6 13,0 SSW 9,0 999,3 83 - -
01:04 14,8 11,5 17,0 SSW 13,0 999,2 81 - -
01:09 14,9 11,4 14,0 SSW 11,0 999,1 80 - -
01:14 14,9 11,3 14,0 SSW 9,0 999,1 79 - -
01:19 14,9 11,3 9,0 SSW 6,0 999,0 79 - -
01:24 14,9 11,2 11,0 SSW 7,0 998,9 78 - -
01:29 15,1 11,1 10,0 SSW 9,0 998,8 77 - -
01:34 15,2 11,0 11,0 SSW 7,0 998,7 77 - -
01:39 15,2 10,9 10,0 SSW 6,0 998,7 76 - -
01:44 15,2 10,9 11,0 SSW 8,0 998,7 76 - -
01:49 15,2 11,0 11,0 SSW 7,0 998,5 76 - -
01:54 15,2 11,1 7,0 SSW 5,0 998,5 77 - -
01:59 15,1 11,1 7,0 SSW 5,0 998,4 77 - -
02:04 15,1 11,1 6,0 SSW 3,0 998,4 77 - -
02:09 14,9 11,2 4,0 SSW 2,0 998,3 79 - -
02:14 14,6 11,1 4,0 SSW 3,0 998,2 80 - -
02:19 14,4 11,1 4,0 SSW 3,0 998,1 80 - -
02:24 14,4 11,3 2,0 SSW 2,0 998,1 83 - -
02:29 14,0 11,2 2,0 SSW 2,0 998,0 83 - -
02:34 14,1 10,9 2,0 SSW 2,0 998,0 81 - -
02:39 14,2 11,1 4,0 SSW 4,0 998,0 82 - -
02:44 14,2 11,1 4,0 SSW 3,0 997,8 82 - -
02:49 14,2 11,0 4,0 SSW 2,0 997,7 81 - -
02:54 14,3 11,1 6,0 SSW 4,0 997,6 81 - -
02:59 14,4 11,0 6,0 SSW 4,0 997,6 80 - -
03:04 14,6 10,9 6,0 SSW 3,0 997,5 79 - -
03:09 14,6 10,9 6,0 SSW 3,0 997,5 79 - -
03:14 14,7 11,1 6,0 SSW 4,0 997,4 79 - -
03:19 14,7 11,1 6,0 SSW 4,0 997,4 79 - -
03:24 14,7 11,1 9,0 SSW 7,0 997,4 79 - -
03:29 14,8 11,0 7,0 SSW 3,0 997,4 78 - -
03:34 14,8 11,1 6,0 SSW 4,0 997,4 79 - -
03:39 14,7 11,2 4,0 SW 3,0 997,3 80 - -
03:44 14,6 11,2 2,0 SW   997,2 80 - -
03:49 14,4 11,2 2,0 SW 2,0 997,1 82 - -
03:54 14,1 11,1 2,0 SW 2,0 997,1 83 - -
03:59 13,8 11,1 2,0 SW 1,0 997,0 84 - -
04:04 13,7 11,1 2,0 SW 1,0 996,9 84 - -
04:09 13,7 11,0 2,0 SW 1,0 996,9 84 - -
04:14 13,6 10,8 4,0 SW 2,0 996,9 83 - -
04:19 13,7 10,8 4,0 SW 2,0 996,8 83 - -
04:24 13,6 10,9 4,0 SW 2,0 996,7 84 - -
04:29 13,4 10,8 4,0 SW 2,0 996,6 84 - -
04:34 13,4 10,9 4,0 SW 3,0 996,6 85 - -
04:39 13,4 10,9 4,0 SW 3,0 996,5 85 - -
04:44 13,4 10,7 6,0 SW 3,0 996,6 84 - -
04:49 13,4 10,8 6,0 SW 5,0 996,6 85 - -
04:54 13,6 10,8 9,0 SSW 6,0 996,6 85 - -
04:59 14,1 10,7 7,0 SSW 7,0 996,6 82 - -
05:04 14,1 10,7 9,0 SSW 7,0 996,5 80 - -
05:09 14,1 10,8 9,0 SSW 7,0 996,5 81 - -
05:14 14,3 10,9 9,0 SSW 7,0 996,4 81 - -
05:19 14,6 10,9 7,0 SSW 7,0 996,3 79 - -
05:24 14,7 10,9 11,0 SSW 7,0 996,2 78 - -
05:29 14,7 11,1 7,0 SSW 5,0 996,3 79 - -
05:34 14,7 11,3 6,0 SSW 3,0 996,2 80 - -
05:39 14,4 11,2 6,0 SSW 3,0 996,3 82 - -
05:44 14,1 11,1 4,0 SSW 1,0 996,2 84 - -
05:49 13,6 11,1 2,0 SSW   996,2 85 - -
05:54 13,4 11,1 3,0 SSW 1,0 996,2 86 - 5
05:59 13,4 11,1 4,0 SSW 2,0 996,1 86 - 7
06:04 13,4 11,3 4,0 SSW 1,0 996,1 87 - 9
06:09 13,6 11,3 6,0 SW 3,0 996,1 86 - 9
06:14 13,9 11,4 7,0 SW 4,0 996,1 85 - 11
06:19 14,3 11,5 10,0 Süden 6,0 996,1 84 - 14
06:24 14,5 11,7 14,0 SSW 7,0 996,1 83 - 18
06:29 14,5 11,7 13,0 SSW 7,0 996,1 83 - 18
06:34 14,4 11,7 11,0 SSW 8,0 996,0 84 - 21
06:39 14,3 11,8 13,0 SSW 9,0 996,0 85 0,25 23
06:44 14,2 12,0 14,0 SSW 8,0 996,0 87 0,25 25
06:49 14,1 12,0 14,0 SSW 9,0 995,9 87 0,25 28
06:54 14,1 12,0 11,0 SSW 9,0 995,9 87 0,25 28
06:59 14,2 12,1 17,0 SSW 9,0 995,8 87 0,25 30
07:04 14,1 12,0 11,0 SSW 8,0 995,8 87 0,25 30
07:09 14,2 12,1 13,0 SSW 9,0 995,7 87 0,25 30
07:14 14,1 12,0 11,0 SSW 7,0 995,7 87 0,25 25
07:19 14,1 12,2 9,0 SSW 7,0 995,7 88 0,25 23
07:24 14,1 12,1 7,0 SSW 6,0 995,7 88 0,25 35
07:29 14,1 12,2 9,0 SSW 6,0 995,6 89 0,51 39
07:34 14,0 12,2 9,0 SSW 6,0 995,6 89 0,51 42
07:39 14,0 12,4 7,0 SSW 6,0 995,5 90 0,51 65
07:44 14,1 12,4 9,0 SSW 7,0 995,5 90 0,25 91
07:49 14,1 12,5 7,0 SSW 4,0 995,5 90 0,25 91
07:54 14,2 12,6 9,0 SW 7,0 995,5 90 0,25 81
07:59 14,2 12,6 11,0 SW 5,0 995,4 90 0,51 86
08:04 14,2 12,6 13,0 SW 6,0 995,4 90 0,51 88
08:09 14,1 12,5 6,0 Süden 4,0 995,5 90 0,51 90
08:14 14,1 12,7 11,0 SSW 6,0 995,5 91 0,51 137
08:19 14,2 12,8 4,0 SSW 2,0 995,4 91 0,51 162
08:24 14,3 12,9 4,0 SSW 2,0 995,4 91 0,51 162
08:29 14,4 13,0 6,0 SSW 3,0 995,5 91 0,25 160
08:34 14,6 13,1 6,0 SSW 4,0 995,5 91 0,25 174
08:39 14,6 13,2 7,0 Süden 4,0 995,5 91 0,25 174
08:44 14,6 13,2 11,0 Süden 9,0 995,5 91 0,25 151
08:49 14,7 13,2 9,0 SSW 6,0 995,6 91 0,25 139
08:54 14,7 13,1 9,0 SW 6,0 995,5 90 0,25 146
08:59 14,8 13,3 11,0 SSW 9,0 995,5 91 - 137
09:04 14,7 13,1 9,0 SSW 6,0 995,4 90 - 114
09:09 14,7 13,1 9,0 SW 6,0 995,4 90 - 90
09:14 14,7 13,1 9,0 SW 7,0 995,4 90 - 102
09:19 14,8 13,3 7,0 SW 4,0 995,4 91 - 125
09:24 14,8 13,2 9,0 SSW 6,0 995,4 90 - 123
09:29 14,8 13,2 9,0 SSW 6,0 995,3 90 - 130
09:34 14,8 13,2 7,0 SSW 6,0 995,3 90 - 139
09:39 14,9 13,3 9,0 SSW 7,0 995,3 90 - 111
09:44 14,9 13,1 12,0 Süden 8,0 995,3 89 - 105
09:49 14,8 13,1 13,0 SSW 6,0 995,2 89 - 76
09:54 14,8 13,1 9,0 SSW 7,0 995,3 89 - 86
09:59 14,8 13,1 11,0 SSW 7,0 995,2 89 - 100
10:04 14,9 13,3 7,0 SSW 5,0 995,1 90 - 104
10:09 14,9 13,3 7,0 SSW 4,0 995,1 90 - 141
10:14 15,1 13,5 7,0 SSW 4,0 995,1 90 - 155
10:19 15,1 13,5 7,0 SSW 6,0 995,1 90 - 141
10:24 15,1 13,4 14,0 SW 9,0 995,1 90 - 171
10:29 15,1 13,4 13,0 SSW 8,0 995,1 90 - 220
10:34 15,3 13,6 12,0 SSW 7,0 995,1 90 - 207
10:39 15,3 13,5 14,0 Süden 11,0 995,1 89 - 113
10:44 15,2 13,4 13,0 SSW 11,0 995,1 89 - 90
10:49 15,2 13,4 17,0 SSW 10,0 995,1 89 - 151
10:54 15,3 13,3 15,0 SSW 10,0 995,0 88 - 148
10:59 15,3 13,5 9,0 SSW 7,0 995,2 89 - 137
11:04 15,3 13,3 13,0 SSW 9,0 995,1 88 - 105
11:09 15,2 13,2 13,0 SSW 7,0 995,1 88 - 81
11:14 15,1 13,3 7,0 SSW 6,0 995,0 89 - 178
11:19 15,2 13,4 9,0 SSW 7,0 995,1 89 - 244
11:24 15,4 13,6 9,0 SSW 7,0 995,1 89 - 204
11:29 15,4 13,5 15,0 SSW 9,0 995,1 89 - 114
11:34 15,2 13,4 12,0 SSW 9,0 995,0 89 - 137
11:39 15,2 13,4 13,0 Süden 7,0 995,0 89 - 146
11:44 15,2 13,4 7,0 Süden 6,0 995,0 89 - 107
11:49 15,1 13,4 11,0 SSW 7,0 995,0 90 0,25 76
11:54 14,9 13,3 9,0 SSW 6,0 995,0 91 0,51 90
11:59 14,8 13,3 13,0 SSW 7,0 995,0 91 0,51 91
12:04 14,8 13,5 9,0 SSW 6,0 995,0 92 0,76 120
12:09 14,8 13,5 10,0 SSW 8,0 995,0 92 0,76 114
12:14 14,8 13,5 14,0 SSW 9,0 995,1 92 1,27 69
12:19 14,7 13,4 9,0 Süden 8,0 995,1 92 2,29 62
12:24 14,6 13,3 7,0 SSW 5,0 995,1 92 2,79 54
12:29 14,5 13,2 7,0 SSW 6,0 995,1 92 2,79 72
12:34 14,6 13,3 11,0 SSW 8,0 995,1 92 2,79 98
12:39 14,6 13,3 11,0 Süden 8,0 995,1 92 2,79 128
12:44 14,7 13,6 10,0 SSW 7,0 995,0 93 2,79 167
12:49 14,9 13,7 11,0 SSW 7,0 994,9 92 2,79 216
12:54 15,1 13,8 9,0 Süden 5,0 994,8 92 2,54 236
12:59 15,1 13,8 15,0 Süden 9,0 994,7 92 2,29 269
13:04 15,4 14,1 7,0 Süden 5,0 994,7 92 2,03 308
13:09 15,6 14,1 11,0 SSW 8,0 994,7 91 2,03 388
13:14 15,7 14,2 12,0 SSW 6,0 994,7 91 2,03 418
13:19 15,9 14,3 17,0 SSW 7,0 994,6 90 1,52 394
13:24 16,0 14,3 15,0 SSW 12,0 994,6 90 0,25 348
13:29 16,0 14,6 14,0 SSW 9,0 994,5 91 - 302
13:34 15,9 14,1 19,0 SSW 11,0 994,5 89 - 302
13:39 15,8 13,9 19,0 SSW 11,0 994,5 89 - 292
13:44 15,8 13,8 17,0 Süden 11,0 994,4 88 - 279
13:49 15,8 13,8 15,0 SSW 12,0 994,4 88 - 294
13:54 15,8 14,0 15,0 SSW 9,0 994,3 89 - 318
13:59 16,0 14,0 14,0 SSW 9,0 994,4 88 - 311
14:04 15,9 13,9 13,0 SSW 8,0 994,4 88 - 343
14:09 15,9 13,9 11,0 SSW 8,0 994,2 88 - 352
14:14 16,0 13,8 19,0 SSW 13,0 994,2 87 - 323
14:19 16,1 14,1 9,0 SSW 7,0 994,1 88 - 388
14:24 16,2 14,1 14,0 SSW 9,0 994,2 88 - 401
14:29 16,2 14,1 15,0 SSW 11,0 994,2 87 - 383
14:34 16,3 14,1 15,0 SSW 12,0 994,1 87 - 283
14:39 16,2 13,8 21,0 SSW 13,0 994,1 87 - 304
14:44 15,9 13,8 20,0 SW 10,0 994,1 87 - 292
14:49 15,9 14,1 14,0 SSW 8,0 994,3 89 - 174
14:54 15,8 13,8 11,0 SW 7,0 994,4 88 1,02 58
14:59 15,3 13,1 9,0 SW 7,0 994,2 87 1,27 60
15:04 14,8 12,8 6,0 SSW 3,0 994,2 89 1,27 118
15:09 14,6 12,9 4,0 SSW 2,0 994,2 90 1,27 207
15:14 14,7 13,3 5,0 SSW 2,0 994,1 91 1,52 281
15:19 14,9 13,3 11,0 WSW 6,0 994,1 91 1,52 287
15:24 14,9 13,2 11,0 Westen 9,0 994,1 89 1,52 250
15:29 14,8 12,9 11,0 NW 9,0 994,1 89 1,52 128
15:34 14,7 12,9 13,0 WNW 7,0 994,2 89 1,52 135
15:39 14,7 13,1 14,0 Westen 8,0 994,2 90 1,52 271
15:44 14,9 13,2 15,0 WNW 9,0 994,1 90 1,52 339
15:49 15,1 13,3 7,0 NW 4,0 994,2 90 1,52 374
15:54 15,3 13,6 9,0 SSW 5,0 994,2 90 1,52 338
15:59 15,3 13,6 9,0 NNW 6,0 994,0 89 0,51 225
16:04 15,2 13,2 7,0 WNW 5,0 994,0 88 0,25 163
16:09 15,1 13,4 6,0 Süden 4,0 994,0 90 0,25 155
16:14 14,9 13,2 7,0 SW 5,0 994,0 89 0,25 132
16:19 14,9 13,3 9,0 WSW 5,0 994,1 90 - 174
16:24 14,8 13,1 9,0 SSW 7,0 994,1 89 - 207
16:29 14,9 13,1 12,0 SSW 5,0 994,1 89 - 214
16:34 15,0 13,2 11,0 SW 6,0 994,0 89 - 190
16:39 15,1 13,3 11,0 Süden 5,0 994,0 89 - 200
16:44 15,1 13,3 6,0 Süden 3,0 994,0 89 - 244
16:49 15,2 13,4 9,0 Süden 5,0 993,9 89 - 257
16:54 15,2 13,2 9,0 WSW 6,0 993,9 88 - 239
16:59 15,4 13,7 7,0 SSW 5,0 994,0 89 - 237
17:04 15,4 13,4 7,0 Westen 6,0 993,9 88 - 227
17:09 15,4 13,3 6,0 SW 3,0 994,0 87 - 204
17:14 15,3 13,1 6,0 Süden 3,0 993,9 87 - 142
17:19 15,2 13,2 6,0 SW 4,0 993,9 88 - 153
17:24 15,3 13,2 9,0 WNW 6,0 994,0 88 - 158
17:29 15,4 13,2 9,0 Westen 6,0 994,0 87 - 200
17:34 15,3 13,2 7,0 WSW 5,0 994,1 87 - 186
17:39 15,4 13,1 17,0 Westen 10,0 994,1 86 - 176
17:44 15,3 12,8 7,0 WNW 6,0 993,8 85 - 330
17:49 15,5 13,3 7,0 Westen 6,0 993,9 87 - 330
17:54 15,8 13,6 10,0 SW 7,0 993,9 88 - 264
17:59 15,8 13,3 11,0 WSW 8,0 993,9 85 - 188
18:04 15,4 13,1 13,0 SW 7,0 994,0 86 - 93
18:09 15,3 12,8 6,0 SSW 4,0 994,0 86 - 46
18:14 15,1 12,7 4,0 SSW 3,0 994,0 86 - 49
18:19 14,9 12,7 6,0 SSW 4,0 994,1 87 - 39
18:24 14,8 12,7 6,0 SSW 3,0 994,1 87 - 35
18:29 14,7 12,8 6,0 SSW 3,0 994,2 88 - 28
18:34 14,6 12,7 6,0 SSW 2,0 994,4 88 - 25
18:39 14,5 12,7 4,0 SSW 2,0 994,4 89 - 21
18:44 14,3 12,7 6,0 WSW 3,0 994,4 90 - 26
18:49 14,3 12,7 5,0 Westen 4,0 994,4 90 - 28
18:54 14,2 12,6 14,0 NNW 9,0 994,2 90 - 30
18:59 14,1 12,7 7,0 Norden 6,0 994,3 91 - 32
19:04 14,1 12,7 6,0 Norden 4,0 994,1 91 - 37
19:09 14,1 12,7 7,0 NNO 5,0 994,1 91 0,25 58
19:14 14,1 12,6 11,0 NW 8,0 994,2 91 0,25 77
19:19 14,0 12,6 7,0 WNW 6,0 994,4 91 0,25 79
19:24 14,0 12,6 7,0 Westen 5,0 994,4 91 0,25 84
19:29 14,0 12,6 10,0 WNW 6,0 994,4 91 0,25 86
19:34 14,0 12,6 22,0 NNW 15,0 994,5 91 0,25 44
19:39 13,8 12,2 15,0 NNW 9,0 994,5 90 0,25 65
19:43 13,6 11,8 11,0 NW 7,0 994,5 89 0,25 65
19:49 13,5 11,9 9,0 NW 5,0 994,5 90 0,25 63
19:54 13,4 11,8 9,0 WNW 6,0 994,4 90 0,25 63
19:59 13,4 11,8 7,0 WNW 5,0 994,4 90 0,25 60
20:04 13,3 11,7 7,0 WNW 6,0 994,2 90 0,25 51
20:09 13,3 11,9 6,0 WNW 4,0 994,2 91 0,25 54
20:14 13,3 11,9 5,0 WNW 4,0 994,3 91 - 54
20:19 13,3 12,1 9,0 WNW 6,0 994,4 92 - 39
20:24 13,3 11,9 7,0 WNW 5,0 994,4 92 - 25
20:29 13,2 11,9 7,0 WNW 3,0 994,4 92 - 23
20:34 13,2 11,9 6,0 Westen 4,0 994,5 92 - 21
20:38 13,2 11,9 6,0 Westen 2,0 994,5 92 - 21
Tägliche Zusammenfassung für Donnerstag 04 Juni 2020
Zeit Temp. ( °C ) Dew pt. ( °C ) Wind ( km/h ) von Windböen ( km/h ) Luftdruck ( hPa ) Humid.( % ) Rainrate ( cm ) Solar ( W/m2 )
Hoch16,3 14,6 22,0 SSW ( 1340/2219 ) 15,0 999,6 93 2,79 418
Durchchnittswerte14,7 12,5 8,9 SSW #142/248 5,9 995,6 87 1,70 144 #178/248
Wenig13,2 10,7 2,0   0,0 993,8 76 -  
Tägliche Tabular details for Donnerstag 04 Juni 2020
Zeit Temp. ( °C ) Dew pt. ( °C ) Wind ( km/h ) von Windböen ( km/h ) Luftdruck ( hPa ) Humid.( % ) Rainrate ( cm ) Solar ( W/m2 )
00:04 13,4 11,5 6,0 Westen 3,0 999,6 88 - -
00:09 14,1 11,6 7,0 WSW 5,0 999,5 88 - -
00:14 14,6 11,7 7,0 SW 5,0 999,5 85 - -
00:19 14,6 11,7 6,0 SW 4,0 999,4 83 - -
00:24 14,4 11,6 6,0 SW 5,0 999,4 83 - -
00:29 14,3 11,6 6,0 SW 5,0 999,4 84 - -
00:34 14,2 11,5 6,0 SW 4,0 999,3 84 - -
00:39 14,2 11,5 4,0 SW 3,0 999,2 84 - -
00:44 14,2 11,7 4,0 SW 3,0 999,1 85 - -
00:49 14,6 11,5 6,0 SW 4,0 999,1 84 - -
00:54 14,6 11,7 9,0 SSW 6,0 999,3 83 - -
00:59 14,6 11,6 13,0 SSW 9,0 999,3 83 - -
01:04 14,8 11,5 17,0 SSW 13,0 999,2 81 - -
01:09 14,9 11,4 14,0 SSW 11,0 999,1 80 - -
01:14 14,9 11,3 14,0 SSW 9,0 999,1 79 - -
01:19 14,9 11,3 9,0 SSW 6,0 999,0 79 - -
01:24 14,9 11,2 11,0 SSW 7,0 998,9 78 - -
01:29 15,1 11,1 10,0 SSW 9,0 998,8 77 - -
01:34 15,2 11,0 11,0 SSW 7,0 998,7 77 - -
01:39 15,2 10,9 10,0 SSW 6,0 998,7 76 - -
01:44 15,2 10,9 11,0 SSW 8,0 998,7 76 - -
01:49 15,2 11,0 11,0 SSW 7,0 998,5 76 - -
01:54 15,2 11,1 7,0 SSW 5,0 998,5 77 - -
01:59 15,1 11,1 7,0 SSW 5,0 998,4 77 - -
02:04 15,1 11,1 6,0 SSW 3,0 998,4 77 - -
02:09 14,9 11,2 4,0 SSW 2,0 998,3 79 - -
02:14 14,6 11,1 4,0 SSW 3,0 998,2 80 - -
02:19 14,4 11,1 4,0 SSW 3,0 998,1 80 - -
02:24 14,4 11,3 2,0 SSW 2,0 998,1 83 - -
02:29 14,0 11,2 2,0 SSW 2,0 998,0 83 - -
02:34 14,1 10,9 2,0 SSW 2,0 998,0 81 - -
02:39 14,2 11,1 4,0 SSW 4,0 998,0 82 - -
02:44 14,2 11,1 4,0 SSW 3,0 997,8 82 - -
02:49 14,2 11,0 4,0 SSW 2,0 997,7 81 - -
02:54 14,3 11,1 6,0 SSW 4,0 997,6 81 - -
02:59 14,4 11,0 6,0 SSW 4,0 997,6 80 - -
03:04 14,6 10,9 6,0 SSW 3,0 997,5 79 - -
03:09 14,6 10,9 6,0 SSW 3,0 997,5 79 - -
03:14 14,7 11,1 6,0 SSW 4,0 997,4 79 - -
03:19 14,7 11,1 6,0 SSW 4,0 997,4 79 - -
03:24 14,7 11,1 9,0 SSW 7,0 997,4 79 - -
03:29 14,8 11,0 7,0 SSW 3,0 997,4 78 - -
03:34 14,8 11,1 6,0 SSW 4,0 997,4 79 - -
03:39 14,7 11,2 4,0 SW 3,0 997,3 80 - -
03:44 14,6 11,2 2,0 SW   997,2 80 - -
03:49 14,4 11,2 2,0 SW 2,0 997,1 82 - -
03:54 14,1 11,1 2,0 SW 2,0 997,1 83 - -
03:59 13,8 11,1 2,0 SW 1,0 997,0 84 - -
04:04 13,7 11,1 2,0 SW 1,0 996,9 84 - -
04:09 13,7 11,0 2,0 SW 1,0 996,9 84 - -
04:14 13,6 10,8 4,0 SW 2,0 996,9 83 - -
04:19 13,7 10,8 4,0 SW 2,0 996,8 83 - -
04:24 13,6 10,9 4,0 SW 2,0 996,7 84 - -
04:29 13,4 10,8 4,0 SW 2,0 996,6 84 - -
04:34 13,4 10,9 4,0 SW 3,0 996,6 85 - -
04:39 13,4 10,9 4,0 SW 3,0 996,5 85 - -
04:44 13,4 10,7 6,0 SW 3,0 996,6 84 - -
04:49 13,4 10,8 6,0 SW 5,0 996,6 85 - -
04:54 13,6 10,8 9,0 SSW 6,0 996,6 85 - -
04:59 14,1 10,7 7,0 SSW 7,0 996,6 82 - -
05:04 14,1 10,7 9,0 SSW 7,0 996,5 80 - -
05:09 14,1 10,8 9,0 SSW 7,0 996,5 81 - -
05:14 14,3 10,9 9,0 SSW 7,0 996,4 81 - -
05:19 14,6 10,9 7,0 SSW 7,0 996,3 79 - -
05:24 14,7 10,9 11,0 SSW 7,0 996,2 78 - -
05:29 14,7 11,1 7,0 SSW 5,0 996,3 79 - -
05:34 14,7 11,3 6,0 SSW 3,0 996,2 80 - -
05:39 14,4 11,2 6,0 SSW 3,0 996,3 82 - -
05:44 14,1 11,1 4,0 SSW 1,0 996,2 84 - -
05:49 13,6 11,1 2,0 SSW   996,2 85 - -
05:54 13,4 11,1 3,0 SSW 1,0 996,2 86 - 5
05:59 13,4 11,1 4,0 SSW 2,0 996,1 86 - 7
06:04 13,4 11,3 4,0 SSW 1,0 996,1 87 - 9
06:09 13,6 11,3 6,0 SW 3,0 996,1 86 - 9
06:14 13,9 11,4 7,0 SW 4,0 996,1 85 - 11
06:19 14,3 11,5 10,0 Süden 6,0 996,1 84 - 14
06:24 14,5 11,7 14,0 SSW 7,0 996,1 83 - 18
06:29 14,5 11,7 13,0 SSW 7,0 996,1 83 - 18
06:34 14,4 11,7 11,0 SSW 8,0 996,0 84 - 21
06:39 14,3 11,8 13,0 SSW 9,0 996,0 85 0,25 23
06:44 14,2 12,0 14,0 SSW 8,0 996,0 87 0,25 25
06:49 14,1 12,0 14,0 SSW 9,0 995,9 87 0,25 28
06:54 14,1 12,0 11,0 SSW 9,0 995,9 87 0,25 28
06:59 14,2 12,1 17,0 SSW 9,0 995,8 87 0,25 30
07:04 14,1 12,0 11,0 SSW 8,0 995,8 87 0,25 30
07:09 14,2 12,1 13,0 SSW 9,0 995,7 87 0,25 30
07:14 14,1 12,0 11,0 SSW 7,0 995,7 87 0,25 25
07:19 14,1 12,2 9,0 SSW 7,0 995,7 88 0,25 23
07:24 14,1 12,1 7,0 SSW 6,0 995,7 88 0,25 35
07:29 14,1 12,2 9,0 SSW 6,0 995,6 89 0,51 39
07:34 14,0 12,2 9,0 SSW 6,0 995,6 89 0,51 42
07:39 14,0 12,4 7,0 SSW 6,0 995,5 90 0,51 65
07:44 14,1 12,4 9,0 SSW 7,0 995,5 90 0,25 91
07:49 14,1 12,5 7,0 SSW 4,0 995,5 90 0,25 91
07:54 14,2 12,6 9,0 SW 7,0 995,5 90 0,25 81
07:59 14,2 12,6 11,0 SW 5,0 995,4 90 0,51 86
08:04 14,2 12,6 13,0 SW 6,0 995,4 90 0,51 88
08:09 14,1 12,5 6,0 Süden 4,0 995,5 90 0,51 90
08:14 14,1 12,7 11,0 SSW 6,0 995,5 91 0,51 137
08:19 14,2 12,8 4,0 SSW 2,0 995,4 91 0,51 162
08:24 14,3 12,9 4,0 SSW 2,0 995,4 91 0,51 162
08:29 14,4 13,0 6,0 SSW 3,0 995,5 91 0,25 160
08:34 14,6 13,1 6,0 SSW 4,0 995,5 91 0,25 174
08:39 14,6 13,2 7,0 Süden 4,0 995,5 91 0,25 174
08:44 14,6 13,2 11,0 Süden 9,0 995,5 91 0,25 151
08:49 14,7 13,2 9,0 SSW 6,0 995,6 91 0,25 139
08:54 14,7 13,1 9,0 SW 6,0 995,5 90 0,25 146
08:59 14,8 13,3 11,0 SSW 9,0 995,5 91 - 137
09:04 14,7 13,1 9,0 SSW 6,0 995,4 90 - 114
09:09 14,7 13,1 9,0 SW 6,0 995,4 90 - 90
09:14 14,7 13,1 9,0 SW 7,0 995,4 90 - 102
09:19 14,8 13,3 7,0 SW 4,0 995,4 91 - 125
09:24 14,8 13,2 9,0 SSW 6,0 995,4 90 - 123
09:29 14,8 13,2 9,0 SSW 6,0 995,3 90 - 130
09:34 14,8 13,2 7,0 SSW 6,0 995,3 90 - 139
09:39 14,9 13,3 9,0 SSW 7,0 995,3 90 - 111
09:44 14,9 13,1 12,0 Süden 8,0 995,3 89 - 105
09:49 14,8 13,1 13,0 SSW 6,0 995,2 89 - 76
09:54 14,8 13,1 9,0 SSW 7,0 995,3 89 - 86
09:59 14,8 13,1 11,0 SSW 7,0 995,2 89 - 100
10:04 14,9 13,3 7,0 SSW 5,0 995,1 90 - 104
10:09 14,9 13,3 7,0 SSW 4,0 995,1 90 - 141
10:14 15,1 13,5 7,0 SSW 4,0 995,1 90 - 155
10:19 15,1 13,5 7,0 SSW 6,0 995,1 90 - 141
10:24 15,1 13,4 14,0 SW 9,0 995,1 90 - 171
10:29 15,1 13,4 13,0 SSW 8,0 995,1 90 - 220
10:34 15,3 13,6 12,0 SSW 7,0 995,1 90 - 207
10:39 15,3 13,5 14,0 Süden 11,0 995,1 89 - 113
10:44 15,2 13,4 13,0 SSW 11,0 995,1 89 - 90
10:49 15,2 13,4 17,0 SSW 10,0 995,1 89 - 151
10:54 15,3 13,3 15,0 SSW 10,0 995,0 88 - 148
10:59 15,3 13,5 9,0 SSW 7,0 995,2 89 - 137
11:04 15,3 13,3 13,0 SSW 9,0 995,1 88 - 105
11:09 15,2 13,2 13,0 SSW 7,0 995,1 88 - 81
11:14 15,1 13,3 7,0 SSW 6,0 995,0 89 - 178
11:19 15,2 13,4 9,0 SSW 7,0 995,1 89 - 244
11:24 15,4 13,6 9,0 SSW 7,0 995,1 89 - 204
11:29 15,4 13,5 15,0 SSW 9,0 995,1 89 - 114
11:34 15,2 13,4 12,0 SSW 9,0 995,0 89 - 137
11:39 15,2 13,4 13,0 Süden 7,0 995,0 89 - 146
11:44 15,2 13,4 7,0 Süden 6,0 995,0 89 - 107
11:49 15,1 13,4 11,0 SSW 7,0 995,0 90 0,25 76
11:54 14,9 13,3 9,0 SSW 6,0 995,0 91 0,51 90
11:59 14,8 13,3 13,0 SSW 7,0 995,0 91 0,51 91
12:04 14,8 13,5 9,0 SSW 6,0 995,0 92 0,76 120
12:09 14,8 13,5 10,0 SSW 8,0 995,0 92 0,76 114
12:14 14,8 13,5 14,0 SSW 9,0 995,1 92 1,27 69
12:19 14,7 13,4 9,0 Süden 8,0 995,1 92 2,29 62
12:24 14,6 13,3 7,0 SSW 5,0 995,1 92 2,79 54
12:29 14,5 13,2 7,0 SSW 6,0 995,1 92 2,79 72
12:34 14,6 13,3 11,0 SSW 8,0 995,1 92 2,79 98
12:39 14,6 13,3 11,0 Süden 8,0 995,1 92 2,79 128
12:44 14,7 13,6 10,0 SSW 7,0 995,0 93 2,79 167
12:49 14,9 13,7 11,0 SSW 7,0 994,9 92 2,79 216
12:54 15,1 13,8 9,0 Süden 5,0 994,8 92 2,54 236
12:59 15,1 13,8 15,0 Süden 9,0 994,7 92 2,29 269
13:04 15,4 14,1 7,0 Süden 5,0 994,7 92 2,03 308
13:09 15,6 14,1 11,0 SSW 8,0 994,7 91 2,03 388
13:14 15,7 14,2 12,0 SSW 6,0 994,7 91 2,03 418
13:19 15,9 14,3 17,0 SSW 7,0 994,6 90 1,52 394
13:24 16,0 14,3 15,0 SSW 12,0 994,6 90 0,25 348
13:29 16,0 14,6 14,0 SSW 9,0 994,5 91 - 302
13:34 15,9 14,1 19,0 SSW 11,0 994,5 89 - 302
13:39 15,8 13,9 19,0 SSW 11,0 994,5 89 - 292
13:44 15,8 13,8 17,0 Süden 11,0 994,4 88 - 279
13:49 15,8 13,8 15,0 SSW 12,0 994,4 88 - 294
13:54 15,8 14,0 15,0 SSW 9,0 994,3 89 - 318
13:59 16,0 14,0 14,0 SSW 9,0 994,4 88 - 311
14:04 15,9 13,9 13,0 SSW 8,0 994,4 88 - 343
14:09 15,9 13,9 11,0 SSW 8,0 994,2 88 - 352
14:14 16,0 13,8 19,0 SSW 13,0 994,2 87 - 323
14:19 16,1 14,1 9,0 SSW 7,0 994,1 88 - 388
14:24 16,2 14,1 14,0 SSW 9,0 994,2 88 - 401
14:29 16,2 14,1 15,0 SSW 11,0 994,2 87 - 383
14:34 16,3 14,1 15,0 SSW 12,0 994,1 87 - 283
14:39 16,2 13,8 21,0 SSW 13,0 994,1 87 - 304
14:44 15,9 13,8 20,0 SW 10,0 994,1 87 - 292
14:49 15,9 14,1 14,0 SSW 8,0 994,3 89 - 174
14:54 15,8 13,8 11,0 SW 7,0 994,4 88 1,02 58
14:59 15,3 13,1 9,0 SW 7,0 994,2 87 1,27 60
15:04 14,8 12,8 6,0 SSW 3,0 994,2 89 1,27 118
15:09 14,6 12,9 4,0 SSW 2,0 994,2 90 1,27 207
15:14 14,7 13,3 5,0 SSW 2,0 994,1 91 1,52 281
15:19 14,9 13,3 11,0 WSW 6,0 994,1 91 1,52 287
15:24 14,9 13,2 11,0 Westen 9,0 994,1 89 1,52 250
15:29 14,8 12,9 11,0 NW 9,0 994,1 89 1,52 128
15:34 14,7 12,9 13,0 WNW 7,0 994,2 89 1,52 135
15:39 14,7 13,1 14,0 Westen 8,0 994,2 90 1,52 271
15:44 14,9 13,2 15,0 WNW 9,0 994,1 90 1,52 339
15:49 15,1 13,3 7,0 NW 4,0 994,2 90 1,52 374
15:54 15,3 13,6 9,0 SSW 5,0 994,2 90 1,52 338
15:59 15,3 13,6 9,0 NNW 6,0 994,0 89 0,51 225
16:04 15,2 13,2 7,0 WNW 5,0 994,0 88 0,25 163
16:09 15,1 13,4 6,0 Süden 4,0 994,0 90 0,25 155
16:14 14,9 13,2 7,0 SW 5,0 994,0 89 0,25 132
16:19 14,9 13,3 9,0 WSW 5,0 994,1 90 - 174
16:24 14,8 13,1 9,0 SSW 7,0 994,1 89 - 207
16:29 14,9 13,1 12,0 SSW 5,0 994,1 89 - 214
16:34 15,0 13,2 11,0 SW 6,0 994,0 89 - 190
16:39 15,1 13,3 11,0 Süden 5,0 994,0 89 - 200
16:44 15,1 13,3 6,0 Süden 3,0 994,0 89 - 244
16:49 15,2 13,4 9,0 Süden 5,0 993,9 89 - 257
16:54 15,2 13,2 9,0 WSW 6,0 993,9 88 - 239
16:59 15,4 13,7 7,0 SSW 5,0 994,0 89 - 237
17:04 15,4 13,4 7,0 Westen 6,0 993,9 88 - 227
17:09 15,4 13,3 6,0 SW 3,0 994,0 87 - 204
17:14 15,3 13,1 6,0 Süden 3,0 993,9 87 - 142
17:19 15,2 13,2 6,0 SW 4,0 993,9 88 - 153
17:24 15,3 13,2 9,0 WNW 6,0 994,0 88 - 158
17:29 15,4 13,2 9,0 Westen 6,0 994,0 87 - 200
17:34 15,3 13,2 7,0 WSW 5,0 994,1 87 - 186
17:39 15,4 13,1 17,0 Westen 10,0 994,1 86 - 176
17:44 15,3 12,8 7,0 WNW 6,0 993,8 85 - 330
17:49 15,5 13,3 7,0 Westen 6,0 993,9 87 - 330
17:54 15,8 13,6 10,0 SW 7,0 993,9 88 - 264
17:59 15,8 13,3 11,0 WSW 8,0 993,9 85 - 188
18:04 15,4 13,1 13,0 SW 7,0 994,0 86 - 93
18:09 15,3 12,8 6,0 SSW 4,0 994,0 86 - 46
18:14 15,1 12,7 4,0 SSW 3,0 994,0 86 - 49
18:19 14,9 12,7 6,0 SSW 4,0 994,1 87 - 39
18:24 14,8 12,7 6,0 SSW 3,0 994,1 87 - 35
18:29 14,7 12,8 6,0 SSW 3,0 994,2 88 - 28
18:34 14,6 12,7 6,0 SSW 2,0 994,4 88 - 25
18:39 14,5 12,7 4,0 SSW 2,0 994,4 89 - 21
18:44 14,3 12,7 6,0 WSW 3,0 994,4 90 - 26
18:49 14,3 12,7 5,0 Westen 4,0 994,4 90 - 28
18:54 14,2 12,6 14,0 NNW 9,0 994,2 90 - 30
18:59 14,1 12,7 7,0 Norden 6,0 994,3 91 - 32
19:04 14,1 12,7 6,0 Norden 4,0 994,1 91 - 37
19:09 14,1 12,7 7,0 NNO 5,0 994,1 91 0,25 58
19:14 14,1 12,6 11,0 NW 8,0 994,2 91 0,25 77
19:19 14,0 12,6 7,0 WNW 6,0 994,4 91 0,25 79
19:24 14,0 12,6 7,0 Westen 5,0 994,4 91 0,25 84
19:29 14,0 12,6 10,0 WNW 6,0 994,4 91 0,25 86
19:34 14,0 12,6 22,0 NNW 15,0 994,5 91 0,25 44
19:39 13,8 12,2 15,0 NNW 9,0 994,5 90 0,25 65
19:43 13,6 11,8 11,0 NW 7,0 994,5 89 0,25 65
19:49 13,5 11,9 9,0 NW 5,0 994,5 90 0,25 63
19:54 13,4 11,8 9,0 WNW 6,0 994,4 90 0,25 63
19:59 13,4 11,8 7,0 WNW 5,0 994,4 90 0,25 60
20:04 13,3 11,7 7,0 WNW 6,0 994,2 90 0,25 51
20:09 13,3 11,9 6,0 WNW 4,0 994,2 91 0,25 54
20:14 13,3 11,9 5,0 WNW 4,0 994,3 91 - 54
20:19 13,3 12,1 9,0 WNW 6,0 994,4 92 - 39
20:24 13,3 11,9 7,0 WNW 5,0 994,4 92 - 25
20:29 13,2 11,9 7,0 WNW 3,0 994,4 92 - 23
20:34 13,2 11,9 6,0 Westen 4,0 994,5 92 - 21
20:38 13,2 11,9 6,0 Westen 2,0 994,5 92 - 21

Download your copy of this data-set  here

Our weather-data as stored at Weather Underground. Script entwickelt von Jim McMurry. Angepasst für das Template von Leuven-Template.eu

Sie finden unser Wetter-Infos auch auf:

netzwerkwettercom

European Weather Network

WeatherCloud

Weather Underground

AWEKAS

HAMweather, WeatherForYou, PWS Weather

Von uns verwendete Ausrüstung:

Wetterstation
Davis VP2

Davis VP2